Time;durP1;ratioP1;P1;durP2;ratioP2;P2;SDS_P1;SDS_P2;PMS_P1;PMS_P2;Temp;Humidity;BMP_temperature;BMP_pressure;BME280_temperature;BME280_humidity;BME280_pressure;Samples;Min_cycle;Max_cycle;Signal;HPM_P1;HPM_P2
2021/10/19 00:00:17;;;;;;;9.48;4.80;;;16.30;58.90;;;;;;6226362;28;20103;-73
2021/10/19 00:03:18;;;;;;;9.55;4.97;;;16.30;59.00;;;;;;6224358;28;20046;-72
2021/10/19 00:06:19;;;;;;;9.23;4.40;;;16.20;59.20;;;;;;6225983;28;20545;-73
2021/10/19 00:09:20;;;;;;;10.23;4.55;;;16.10;59.30;;;;;;6224793;28;20477;-73
2021/10/19 00:12:21;;;;;;;9.90;4.78;;;16.10;59.40;;;;;;6200632;28;20030;-73
2021/10/19 00:15:22;;;;;;;8.23;4.22;;;16.00;59.40;;;;;;6226123;28;20415;-73
2021/10/19 00:18:23;;;;;;;12.10;4.68;;;16.00;59.50;;;;;;6224658;28;20093;-73
2021/10/19 00:21:24;;;;;;;8.25;4.25;;;16.00;59.60;;;;;;6241486;28;20034;-72
2021/10/19 00:24:25;;;;;;;11.07;4.28;;;15.90;59.70;;;;;;6225803;28;20141;-73
2021/10/19 00:27:26;;;;;;;8.18;4.07;;;15.90;59.70;;;;;;6224556;28;20030;-73
2021/10/19 00:30:30;;;;;;;8.93;3.58;;;15.90;59.70;;;;;;6241142;28;20030;-72
2021/10/19 00:33:31;;;;;;;7.30;3.92;;;15.80;59.70;;;;;;6223399;28;20367;-72
2021/10/19 00:36:32;;;;;;;13.32;3.90;;;15.80;59.90;;;;;;6225389;28;20042;-72
2021/10/19 00:39:33;;;;;;;8.48;4.07;;;15.70;60.00;;;;;;6224738;28;20077;-73
2021/10/19 00:42:37;;;;;;;6.60;3.90;;;15.60;60.30;;;;;;6224217;28;20034;-73
2021/10/19 00:45:38;;;;;;;12.88;4.43;;;15.50;60.40;;;;;;6224462;28;20044;-73
2021/10/19 00:48:40;;;;;;;8.57;3.80;;;15.50;60.60;;;;;;6224018;28;20135;-73
2021/10/19 00:51:41;;;;;;;12.40;4.75;;;15.40;60.70;;;;;;6217919;28;20044;-72
2021/10/19 00:54:43;;;;;;;9.90;4.35;;;15.40;60.90;;;;;;6225932;28;20044;-73
2021/10/19 00:57:45;;;;;;;9.50;4.65;;;15.40;60.90;;;;;;6223735;28;20041;-72
2021/10/19 01:00:46;;;;;;;8.45;4.15;;;15.30;61.00;;;;;;6225196;28;20037;-73
2021/10/19 01:03:47;;;;;;;7.97;4.30;;;15.30;61.20;;;;;;6223219;28;20042;-72
2021/10/19 01:06:48;;;;;;;11.30;4.82;;;15.30;61.40;;;;;;6223888;28;20492;-72
2021/10/19 01:09:49;;;;;;;12.60;4.80;;;15.30;62.30;;;;;;6222499;28;20502;-72
2021/10/19 01:12:50;;;;;;;7.97;3.92;;;15.20;61.50;;;;;;6223288;28;20062;-74
2021/10/19 01:16:05;;;;;;;8.13;4.35;;;15.20;61.70;;;;;;6223665;28;20044;-73
2021/10/19 01:19:06;;;;;;;9.00;4.90;;;15.20;61.70;;;;;;6221471;28;20089;-72
2021/10/19 01:22:10;;;;;;;8.90;4.75;;;15.20;61.70;;;;;;6222151;28;20030;-73
2021/10/19 01:25:15;;;;;;;10.90;4.40;;;15.20;61.90;;;;;;6223601;28;20041;-72
2021/10/19 01:28:16;;;;;;;12.00;4.25;;;15.20;61.90;;;;;;6222945;28;20084;-73
2021/10/19 01:31:17;;;;;;;14.75;4.50;;;15.20;61.90;;;;;;6220288;28;20451;-73
2021/10/19 01:34:18;;;;;;;8.73;3.88;;;15.20;61.90;;;;;;6205889;28;20038;-72
2021/10/19 01:37:19;;;;;;;9.63;4.20;;;15.10;62.00;;;;;;6221780;28;20404;-73
2021/10/19 01:40:20;;;;;;;6.45;3.97;;;15.10;62.00;;;;;;6222648;28;20099;-72
2021/10/19 01:43:23;;;;;;;9.00;3.90;;;15.00;62.10;;;;;;6220388;28;20070;-73
2021/10/19 01:46:25;;;;;;;12.43;4.68;;;15.00;62.40;;;;;;6222045;28;20049;-73
2021/10/19 01:49:25;;;;;;;11.50;4.47;;;14.90;62.50;;;;;;6222749;28;20375;-72
2021/10/19 01:52:26;;;;;;;17.23;4.10;;;14.90;62.60;;;;;;6222090;28;20045;-72
2021/10/19 01:55:27;;;;;;;10.93;4.50;;;14.90;62.60;;;;;;6206525;28;20045;-73
2021/10/19 01:58:28;;;;;;;11.48;4.40;;;14.90;62.60;;;;;;6222820;28;20030;-73
2021/10/19 02:01:29;;;;;;;7.22;4.00;;;14.90;62.50;;;;;;6222130;28;20026;-72
2021/10/19 02:04:30;;;;;;;8.48;4.40;;;14.90;62.40;;;;;;6221075;28;20030;-72
2021/10/19 02:07:30;;;;;;;8.65;4.28;;;14.90;62.30;;;;;;6238161;28;20026;-73
2021/10/19 02:10:33;;;;;;;8.90;4.55;;;14.90;62.20;;;;;;6222415;28;20041;-73
2021/10/19 02:13:34;;;;;;;14.88;4.60;;;14.90;62.20;;;;;;6211507;28;20120;-72
2021/10/19 02:16:35;;;;;;;17.38;4.88;;;14.90;62.20;;;;;;6226414;28;20200;-72
2021/10/19 02:19:36;;;;;;;9.82;4.38;;;14.90;62.30;;;;;;6226246;28;20052;-73
2021/10/19 02:22:36;;;;;;;12.95;5.05;;;14.90;62.40;;;;;;6226459;28;20479;-73
2021/10/19 02:25:37;;;;;;;10.88;3.97;;;14.80;62.50;;;;;;6226293;28;20065;-73
2021/10/19 02:28:38;;;;;;;12.20;4.80;;;14.80;62.60;;;;;;6227116;28;20030;-73
2021/10/19 02:31:39;;;;;;;20.92;4.50;;;14.80;62.70;;;;;;6226599;28;20091;-74
2021/10/19 02:34:40;;;;;;;18.73;4.32;;;14.80;62.70;;;;;;6226639;28;20095;-73
2021/10/19 02:37:42;;;;;;;7.57;3.30;;;14.70;62.60;;;;;;6225223;28;20042;-73
2021/10/19 02:40:43;;;;;;;8.65;4.07;;;14.80;62.60;;;;;;6225689;28;20034;-73
2021/10/19 02:43:43;;;;;;;8.60;3.75;;;14.80;62.50;;;;;;6226894;28;20546;-73
2021/10/19 02:46:44;;;;;;;11.00;3.92;;;14.80;62.30;;;;;;6225756;28;20034;-73
2021/10/19 02:49:45;;;;;;;8.77;4.05;;;14.80;62.20;;;;;;6226674;28;20434;-73
2021/10/19 02:52:46;;;;;;;8.38;4.40;;;14.80;62.10;;;;;;6226869;28;20038;-73
2021/10/19 02:55:47;;;;;;;6.65;3.63;;;14.80;62.10;;;;;;6226991;28;20049;-72
2021/10/19 02:58:49;;;;;;;10.35;4.38;;;14.80;62.10;;;;;;6225388;28;20034;-73
2021/10/19 03:01:50;;;;;;;8.27;3.92;;;14.80;62.20;;;;;;6225135;28;20464;-73
2021/10/19 03:04:51;;;;;;;9.02;4.25;;;14.80;62.20;;;;;;6226171;28;20034;-72
2021/10/19 03:07:52;;;;;;;15.35;3.90;;;14.80;63.00;;;;;;6226598;28;20046;-73
2021/10/19 03:10:53;;;;;;;6.80;3.83;;;14.80;62.20;;;;;;6240969;28;20038;-73
2021/10/19 03:13:54;;;;;;;8.50;4.05;;;14.80;62.20;;;;;;6241726;28;20100;-73
2021/10/19 03:16:55;;;;;;;5.65;3.42;;;14.80;62.10;;;;;;6226019;28;20085;-73
2021/10/19 03:19:56;;;;;;;9.80;3.80;;;14.80;62.20;;;;;;6225585;28;20034;-71
2021/10/19 03:22:57;;;;;;;6.80;3.58;;;14.80;62.10;;;;;;6224468;28;20033;-71
2021/10/19 03:25:58;;;;;;;10.55;4.47;;;14.90;62.10;;;;;;6228731;28;20116;-71
2021/10/19 03:28:59;;;;;;;8.65;3.72;;;14.90;61.90;;;;;;6224251;28;20042;-72
2021/10/19 03:32:00;;;;;;;6.47;3.70;;;15.00;61.70;;;;;;6225492;28;20042;-72
2021/10/19 03:35:01;;;;;;;5.53;2.85;;;15.00;61.60;;;;;;6222772;28;20038;-72
2021/10/19 03:38:03;;;;;;;7.72;3.20;;;15.00;61.30;;;;;;6223528;28;20042;-72
2021/10/19 03:41:05;;;;;;;6.03;3.42;;;15.00;61.10;;;;;;6225101;28;20515;-73
2021/10/19 03:44:06;;;;;;;7.03;3.80;;;15.10;61.00;;;;;;6224667;28;20359;-72
2021/10/19 03:47:07;;;;;;;5.72;3.30;;;15.10;60.80;;;;;;6219805;28;20034;-72
2021/10/19 03:50:10;;;;;;;13.00;3.30;;;15.00;60.70;;;;;;6224319;28;20044;-73
2021/10/19 03:53:12;;;;;;;7.70;3.53;;;15.00;60.80;;;;;;6216594;28;20061;-72
2021/10/19 03:56:13;;;;;;;6.05;3.45;;;14.90;61.00;;;;;;6223238;28;20033;-72
2021/10/19 03:59:13;;;;;;;7.90;3.72;;;14.70;61.50;;;;;;6224134;28;20041;-72
2021/10/19 04:02:14;;;;;;;7.53;3.28;;;14.70;61.90;;;;;;6224492;28;20029;-72
2021/10/19 04:05:15;;;;;;;7.75;4.05;;;14.60;62.20;;;;;;6224972;28;20046;-73
2021/10/19 04:08:16;;;;;;;7.82;3.42;;;14.50;62.20;;;;;;6224083;28;20034;-72
2021/10/19 04:11:17;;;;;;;5.55;3.20;;;14.50;62.40;;;;;;6224645;28;20076;-73
2021/10/19 04:14:18;;;;;;;8.35;3.65;;;14.40;62.60;;;;;;6224830;28;20100;-73
2021/10/19 04:17:19;;;;;;;9.90;4.15;;;14.40;62.80;;;;;;6224572;28;20077;-73
2021/10/19 04:20:19;;;;;;;8.90;3.92;;;14.40;63.00;;;;;;6224658;28;20351;-73
2021/10/19 04:23:21;;;;;;;8.80;3.83;;;14.30;63.10;;;;;;6240107;28;20455;-72
2021/10/19 04:26:22;;;;;;;7.40;3.30;;;14.30;63.20;;;;;;6222924;28;20042;-71
2021/10/19 04:29:22;;;;;;;7.55;3.50;;;14.20;63.10;;;;;;6207139;28;20054;-71
2021/10/19 04:32:23;;;;;;;6.88;3.42;;;14.20;63.20;;;;;;6222247;28;20069;-71
2021/10/19 04:35:24;;;;;;;7.72;3.25;;;14.10;63.20;;;;;;6223166;28;20092;-71
2021/10/19 04:38:25;;;;;;;11.15;3.70;;;14.10;63.20;;;;;;6221387;28;20077;-72
2021/10/19 04:41:28;;;;;;;10.77;3.72;;;14.10;63.20;;;;;;6223966;28;20140;-72
2021/10/19 04:44:30;;;;;;;8.60;3.38;;;14.10;63.30;;;;;;6223188;28;20026;-71
2021/10/19 04:47:31;;;;;;;11.55;3.90;;;14.00;63.50;;;;;;6224632;28;20068;-72
2021/10/19 04:50:34;;;;;;;11.77;4.47;;;13.90;63.50;;;;;;6223393;28;20045;-72
2021/10/19 04:53:36;;;;;;;7.45;4.05;;;13.90;63.60;;;;;;6223391;28;20038;-72
2021/10/19 04:56:37;;;;;;;8.25;3.97;;;13.90;63.70;;;;;;6222499;28;20128;-73
2021/10/19 04:59:37;;;;;;;9.02;3.92;;;13.90;63.80;;;;;;6222786;28;20092;-72
2021/10/19 05:02:49;;;;;;;9.45;4.32;;;13.80;63.90;;;;;;6222919;28;20038;-72
2021/10/19 05:05:51;;;;;;;8.63;4.20;;;13.80;64.00;;;;;;6223401;28;20124;-73
2021/10/19 05:08:52;;;;;;;8.25;4.28;;;13.90;64.20;;;;;;6223392;28;20077;-72
2021/10/19 05:11:52;;;;;;;12.38;4.00;;;13.80;64.20;;;;;;6221847;28;20042;-72
2021/10/19 05:14:54;;;;;;;7.13;3.42;;;13.80;64.30;;;;;;6223476;28;20034;-72
2021/10/19 05:17:54;;;;;;;8.45;4.10;;;13.80;64.50;;;;;;6226270;28;20050;-73
2021/10/19 05:20:55;;;;;;;10.80;3.92;;;13.80;65.30;;;;;;6222888;28;20045;-73
2021/10/19 05:23:56;;;;;;;10.43;4.72;;;13.90;65.20;;;;;;6222640;28;20529;-73
2021/10/19 05:26:57;;;;;;;8.00;3.65;;;13.90;64.30;;;;;;6221486;28;20131;-73
2021/10/19 05:29:58;;;;;;;8.93;3.85;;;13.90;64.20;;;;;;6221998;28;20045;-73
2021/10/19 05:32:59;;;;;;;9.32;4.07;;;14.00;64.10;;;;;;6204286;28;20066;-72
2021/10/19 05:36:01;;;;;;;9.25;3.70;;;14.00;64.10;;;;;;6222538;28;20128;-75
2021/10/19 05:39:03;;;;;;;8.63;3.38;;;14.00;63.90;;;;;;6220774;28;20045;-73
2021/10/19 05:42:04;;;;;;;6.70;3.15;;;14.10;63.80;;;;;;6204759;28;20041;-72
2021/10/19 05:45:05;;;;;;;8.13;3.08;;;14.10;63.50;;;;;;6205208;28;20334;-72
2021/10/19 05:48:06;;;;;;;6.93;3.55;;;14.10;63.20;;;;;;6227951;28;20034;-72
2021/10/19 05:51:08;;;;;;;11.05;3.25;;;14.20;63.60;;;;;;6220612;28;20038;-73
2021/10/19 05:54:09;;;;;;;6.90;3.53;;;14.20;62.90;;;;;;6236682;28;20117;-74
2021/10/19 05:57:10;;;;;;;7.13;3.60;;;14.30;62.70;;;;;;6220080;28;20052;-73
2021/10/19 06:00:11;;;;;;;13.50;4.18;;;14.20;62.30;;;;;;6221512;28;20042;-72
2021/10/19 06:03:15;;;;;;;6.85;3.30;;;14.20;62.80;;;;;;6221581;28;20069;-73
2021/10/19 06:06:17;;;;;;;7.20;3.55;;;14.20;61.90;;;;;;6211680;28;20040;-72
2021/10/19 06:09:18;;;;;;;13.18;3.00;;;14.20;61.90;;;;;;6220994;28;20034;-72
2021/10/19 06:12:19;;;;;;;5.13;3.60;;;14.20;61.90;;;;;;6222087;28;20096;-72
2021/10/19 06:15:24;;;;;;;10.50;3.30;;;14.20;61.90;;;;;;6222936;28;20455;-72
2021/10/19 06:18:25;;;;;;;13.52;3.97;;;14.20;61.90;;;;;;6223851;28;20050;-72
2021/10/19 06:21:26;;;;;;;8.38;3.50;;;14.20;61.90;;;;;;6221205;28;20034;-72
2021/10/19 06:24:27;;;;;;;7.18;3.50;;;14.20;61.90;;;;;;6222314;28;20069;-72
2021/10/19 06:27:28;;;;;;;10.05;4.13;;;14.30;61.90;;;;;;6221934;28;20096;-73
2021/10/19 06:30:29;;;;;;;7.68;3.58;;;14.30;61.90;;;;;;6221016;28;20340;-73
2021/10/19 06:33:30;;;;;;;12.70;4.38;;;14.10;61.70;;;;;;6220734;28;20062;-73
2021/10/19 06:36:31;;;;;;;9.75;3.88;;;14.30;61.80;;;;;;6237400;28;20038;-71
2021/10/19 06:39:32;;;;;;;21.67;4.82;;;14.30;61.80;;;;;;6218095;28;20049;-71
2021/10/19 06:42:33;;;;;;;13.52;5.40;;;14.30;61.80;;;;;;6221633;28;20084;-71
2021/10/19 06:45:34;;;;;;;10.77;5.35;;;14.30;61.80;;;;;;6221452;28;20356;-72
2021/10/19 06:48:35;;;;;;;12.30;6.13;;;14.30;61.70;;;;;;6223393;28;20100;-72
2021/10/19 06:51:36;;;;;;;15.70;4.80;;;14.20;61.80;;;;;;6221681;28;20030;-73
2021/10/19 06:54:37;;;;;;;11.57;4.82;;;14.20;62.00;;;;;;6216779;28;20447;-72
2021/10/19 06:57:42;;;;;;;7.93;4.70;;;14.20;62.20;;;;;;6236522;28;20042;-72
2021/10/19 07:00:43;;;;;;;12.98;5.43;;;14.20;62.30;;;;;;6221610;28;20367;-72
2021/10/19 07:03:44;;;;;;;13.52;5.32;;;14.20;62.30;;;;;;6223074;28;20038;-72
2021/10/19 07:06:44;;;;;;;20.65;7.55;;;14.20;62.50;;;;;;6224792;28;20557;-71
2021/10/19 07:09:45;;;;;;;27.83;5.90;;;14.40;62.50;;;;;;6223976;28;20052;-72
2021/10/19 07:12:47;;;;;;;14.00;6.57;;;14.30;62.40;;;;;;6225044;28;20065;-72
2021/10/19 07:15:52;;;;;;;34.63;10.85;;;14.40;62.40;;;;;;6225801;28;20064;-72
2021/10/19 07:18:53;;;;;;;19.88;10.60;;;14.40;62.30;;;;;;6224817;28;20030;-72
2021/10/19 07:21:54;;;;;;;20.50;8.88;;;14.50;62.20;;;;;;6219726;28;20390;-72
2021/10/19 07:24:55;;;;;;;15.18;8.73;;;14.50;62.10;;;;;;6217544;28;20065;-72
2021/10/19 07:27:57;;;;;;;18.77;8.32;;;14.60;62.10;;;;;;6222906;28;20030;-72
2021/10/19 07:30:58;;;;;;;19.70;7.55;;;14.60;61.90;;;;;;6201016;28;20122;-72
2021/10/19 07:33:59;;;;;;;10.98;5.43;;;14.60;61.70;;;;;;6223249;28;20026;-72
2021/10/19 07:37:00;;;;;;;16.08;6.78;;;14.60;61.70;;;;;;6225029;28;20066;-72
2021/10/19 07:40:08;;;;;;;18.17;5.82;;;14.70;61.70;;;;;;6223179;28;20041;-73
2021/10/19 07:43:11;;;;;;;11.35;5.57;;;14.70;61.70;;;;;;6220723;28;20057;-72
2021/10/19 07:46:12;;;;;;;13.73;5.57;;;14.80;61.60;;;;;;6223488;28;20460;-74
2021/10/19 07:49:13;;;;;;;11.68;5.68;;;14.90;61.50;;;;;;6206949;28;20025;-73
2021/10/19 07:52:14;;;;;;;9.90;5.10;;;15.00;61.30;;;;;;6223671;28;20038;-72
2021/10/19 07:55:15;;;;;;;10.07;4.93;;;15.10;61.10;;;;;;6222092;28;20038;-72
2021/10/19 07:58:17;;;;;;;11.85;4.60;;;15.10;60.80;;;;;;6222763;28;20046;-72
2021/10/19 08:01:18;;;;;;;10.80;4.43;;;15.20;60.60;;;;;;6223858;28;20041;-73
2021/10/19 08:04:19;;;;;;;11.65;4.05;;;15.30;60.30;;;;;;6222568;28;20044;-72
2021/10/19 08:07:20;;;;;;;7.65;4.15;;;15.40;60.10;;;;;;6239658;28;20248;-72
2021/10/19 08:10:23;;;;;;;7.60;4.07;;;15.40;60.00;;;;;;6222486;28;20104;-72
2021/10/19 08:13:24;;;;;;;13.00;5.13;;;15.50;59.90;;;;;;6224055;28;20025;-73
2021/10/19 08:16:25;;;;;;;7.70;4.35;;;15.60;59.80;;;;;;6224603;28;20150;-73
2021/10/19 08:19:26;;;;;;;12.18;4.05;;;15.70;59.70;;;;;;6222897;28;20029;-72
2021/10/19 08:22:29;;;;;;;10.38;3.95;;;15.90;59.60;;;;;;6224194;28;20606;-72
2021/10/19 08:25:30;;;;;;;18.55;4.80;;;16.00;59.90;;;;;;6223413;28;20033;-72
2021/10/19 08:28:31;;;;;;;12.95;5.07;;;16.20;59.10;;;;;;6223340;28;20069;-72
2021/10/19 08:31:32;;;;;;;13.95;5.78;;;16.20;58.80;;;;;;6221934;28;20033;-72
2021/10/19 08:34:33;;;;;;;8.68;4.40;;;16.50;58.50;;;;;;6223000;28;20068;-73
2021/10/19 08:37:34;;;;;;;11.18;4.43;;;16.60;58.20;;;;;;6223332;28;20038;-72
2021/10/19 08:40:35;;;;;;;8.57;3.70;;;16.70;58.00;;;;;;6238447;28;20490;-73
2021/10/19 08:43:38;;;;;;;11.07;3.47;;;16.90;57.90;;;;;;6223457;28;20096;-73
2021/10/19 08:46:40;;;;;;;6.20;3.13;;;17.00;57.70;;;;;;6223863;28;20033;-73
2021/10/19 08:49:41;;;;;;;9.52;2.97;;;17.20;57.20;;;;;;6222083;28;20471;-73
2021/10/19 08:52:42;;;;;;;6.90;3.20;;;17.30;57.00;;;;;;6223345;28;20038;-73
2021/10/19 08:55:43;;;;;;;9.43;3.47;;;17.40;56.50;;;;;;6199413;28;20073;-72
2021/10/19 08:58:44;;;;;;;19.10;8.50;;;17.40;56.20;;;;;;6221567;28;20055;-73
2021/10/19 09:01:46;;;;;;;33.08;14.18;;;17.50;56.00;;;;;;6228655;28;20125;-72
2021/10/19 09:04:55;;;;;;;12.30;6.70;;;17.50;55.80;;;;;;6221889;28;20026;-72
2021/10/19 09:08:01;;;;;;;19.08;4.90;;;17.50;55.70;;;;;;6222267;28;20084;-73
2021/10/19 09:11:13;;;;;;;9.40;3.70;;;17.70;55.70;;;;;;6223640;28;20034;-72
2021/10/19 09:14:15;;;;;;;8.48;3.55;;;17.80;55.40;;;;;;6222357;28;20423;-72
2021/10/19 09:17:16;;;;;;;12.07;3.90;;;18.00;55.10;;;;;;6222518;28;20065;-72
2021/10/19 09:20:18;;;;;;;16.10;5.10;;;18.00;54.90;;;;;;6222060;28;20040;-71
2021/10/19 09:23:22;;;;;;;13.57;3.95;;;18.10;54.70;;;;;;6222656;28;20040;-72
2021/10/19 09:26:59;;;;;;;5.78;3.30;;;18.10;54.30;;;;;;6223882;28;20060;-71
2021/10/19 09:30:06;;;;;;;10.45;3.30;;;18.20;54.00;;;;;;6192511;28;20414;-73
2021/10/19 09:33:17;;;;;;;14.23;3.40;;;18.30;53.50;;;;;;6195261;28;20042;-72
2021/10/19 09:36:18;;;;;;;9.30;2.90;;;18.30;53.30;;;;;;6196441;28;20316;-73
2021/10/19 09:39:32;;;;;;;11.13;2.75;;;18.30;53.10;;;;;;6196626;28;20120;-72
2021/10/19 09:42:35;;;;;;;13.98;4.75;;;18.40;52.60;;;;;;6196528;28;20089;-72
2021/10/19 09:45:40;;;;;;;15.32;6.07;;;18.50;52.50;;;;;;6175057;28;20065;-73
2021/10/19 09:48:44;;;;;;;27.52;4.30;;;18.60;52.60;;;;;;6196859;28;20041;-72
2021/10/19 09:51:45;;;;;;;13.88;3.45;;;18.80;52.30;;;;;;6195120;28;20034;-72
2021/10/19 09:54:52;;;;;;;21.10;7.15;;;18.90;51.90;;;;;;6180221;28;20121;-72
2021/10/19 09:57:53;;;;;;;20.92;8.68;;;19.00;51.70;;;;;;6195871;28;20157;-73
2021/10/19 10:00:54;;;;;;;12.93;4.85;;;19.10;51.50;;;;;;6178914;28;20411;-72
2021/10/19 10:03:56;;;;;;;7.28;3.75;;;19.30;51.30;;;;;;6180120;28;20038;-73
2021/10/19 10:06:58;;;;;;;7.55;2.97;;;19.40;50.90;;;;;;6205032;28;20038;-72
2021/10/19 10:09:59;;;;;;;9.23;3.75;;;19.70;50.20;;;;;;6222543;28;20053;-73
2021/10/19 10:13:16;;;;;;;13.20;3.65;;;20.00;49.80;;;;;;6221676;28;20092;-73
2021/10/19 10:16:17;;;;;;;10.98;4.20;;;20.20;49.20;;;;;;6221289;28;20034;-73
2021/10/19 10:19:20;;;;;;;7.50;3.45;;;20.50;48.90;;;;;;6222458;28;20085;-73
2021/10/19 10:22:28;;;;;;;8.10;2.90;;;20.70;48.30;;;;;;6221371;28;20034;-73
2021/10/19 10:25:37;;;;;;;9.25;3.33;;;21.10;47.80;;;;;;6221333;28;20139;-73
2021/10/19 10:28:37;;;;;;;12.85;4.32;;;21.30;47.40;;;;;;6223349;28;20443;-72
2021/10/19 10:31:53;;;;;;;6.70;3.20;;;21.60;46.90;;;;;;6221609;28;20072;-72
2021/10/19 10:35:07;;;;;;;4.25;2.78;;;21.80;46.20;;;;;;6219859;28;20100;-73
2021/10/19 10:38:08;;;;;;;9.00;2.33;;;22.00;45.50;;;;;;6225426;28;20081;-73
2021/10/19 10:41:14;;;;;;;6.75;2.63;;;22.10;44.80;;;;;;6225542;28;20029;-73
2021/10/19 10:44:22;;;;;;;6.75;2.85;;;22.20;44.50;;;;;;6226016;28;20120;-73
2021/10/19 10:47:25;;;;;;;12.95;3.50;;;22.30;44.40;;;;;;6225732;28;20041;-73
2021/10/19 10:50:28;;;;;;;5.78;2.80;;;22.50;44.30;;;;;;6225371;28;20459;-73
2021/10/19 10:53:34;;;;;;;4.20;2.20;;;22.70;44.00;;;;;;6225854;28;20095;-73
2021/10/19 10:56:44;;;;;;;8.07;2.42;;;22.80;43.50;;;;;;6226488;28;20485;-72
2021/10/19 10:59:52;;;;;;;5.97;2.00;;;23.00;43.10;;;;;;6220314;28;20209;-73
2021/10/19 11:03:14;;;;;;;6.85;3.80;;;23.00;42.60;;;;;;6224600;28;20033;-73
2021/10/19 11:06:17;;;;;;;4.93;2.08;;;23.10;42.30;;;;;;6224968;28;20022;-73
2021/10/19 11:09:18;;;;;;;6.32;2.40;;;23.10;41.90;;;;;;6225392;28;20125;-73
2021/10/19 11:12:21;;;;;;;6.22;2.70;;;23.10;41.80;;;;;;6224380;28;20030;-73
2021/10/19 11:15:22;;;;;;;6.85;2.10;;;23.20;41.50;;;;;;6225393;28;20129;-73
2021/10/19 11:18:25;;;;;;;5.95;2.30;;;23.30;41.30;;;;;;6226272;28;20033;-72
2021/10/19 11:21:26;;;;;;;7.18;2.67;;;23.40;40.80;;;;;;6224703;28;20411;-73
2021/10/19 11:24:30;;;;;;;3.17;1.90;;;23.50;40.50;;;;;;6224668;28;20530;-72
2021/10/19 11:27:32;;;;;;;4.32;2.00;;;23.60;40.30;;;;;;6222962;28;20088;-72
2021/10/19 11:30:35;;;;;;;5.18;2.45;;;23.80;39.90;;;;;;6209137;28;20046;-72
2021/10/19 11:33:38;;;;;;;3.30;2.20;;;23.90;39.60;;;;;;6227516;28;20378;-72
2021/10/19 11:36:39;;;;;;;5.50;2.30;;;24.10;39.00;;;;;;6207707;28;20419;-73
2021/10/19 11:39:40;;;;;;;8.10;3.33;;;24.20;38.70;;;;;;6224110;28;20050;-73
2021/10/19 11:42:46;;;;;;;3.63;1.85;;;24.30;38.40;;;;;;6240466;28;20519;-71
2021/10/19 11:45:49;;;;;;;5.93;2.28;;;24.40;38.00;;;;;;6223823;28;20086;-72
2021/10/19 11:48:52;;;;;;;9.68;2.58;;;24.60;37.70;;;;;;6224916;28;20125;-73
2021/10/19 11:51:53;;;;;;;4.63;2.15;;;24.80;36.90;;;;;;6203873;28;20042;-72
2021/10/19 11:54:54;;;;;;;10.02;2.72;;;25.00;36.70;;;;;;6223405;28;20096;-73
2021/10/19 11:57:55;;;;;;;8.32;2.15;;;25.20;36.40;;;;;;6206505;28;20732;-71
2021/10/19 12:00:56;;;;;;;8.63;2.28;;;25.40;36.30;;;;;;6225883;28;20129;-73
2021/10/19 12:04:06;;;;;;;7.38;2.55;;;25.60;36.20;;;;;;6224356;28;20041;-73
2021/10/19 12:07:08;;;;;;;11.93;2.33;;;25.70;35.90;;;;;;6224769;28;20121;-72
2021/10/19 12:10:10;;;;;;;4.10;1.83;;;25.70;35.50;;;;;;6223359;28;20103;-72
2021/10/19 12:13:11;;;;;;;9.70;3.00;;;25.70;35.30;;;;;;6224093;28;20385;-72
2021/10/19 12:16:12;;;;;;;6.15;2.20;;;25.70;35.30;;;;;;6223339;28;20134;-73
2021/10/19 12:19:13;;;;;;;9.15;2.05;;;25.80;35.00;;;;;;6223618;28;20397;-73
2021/10/19 12:22:15;;;;;;;10.40;2.17;;;26.00;34.50;;;;;;6223551;28;20097;-72
2021/10/19 12:25:16;;;;;;;5.43;2.58;;;26.00;34.00;;;;;;6224752;28;20072;-72
2021/10/19 12:28:24;;;;;;;7.25;2.08;;;26.00;34.10;;;;;;6223302;28;20041;-72
2021/10/19 12:31:25;;;;;;;11.52;1.92;;;25.90;33.90;;;;;;6224175;28;20054;-72
2021/10/19 12:34:27;;;;;;;8.18;2.40;;;25.50;34.10;;;;;;6223764;28;20037;-72
2021/10/19 12:37:35;;;;;;;4.13;1.95;;;24.90;34.50;;;;;;6222798;28;20046;-73
2021/10/19 12:40:46;;;;;;;9.20;1.83;;;24.40;35.50;;;;;;6223143;28;20042;-72
2021/10/19 12:43:48;;;;;;;16.05;2.28;;;24.10;36.20;;;;;;6223107;28;20323;-72
2021/10/19 12:46:50;;;;;;;3.53;1.83;;;23.80;36.90;;;;;;6223407;28;20058;-72
2021/10/19 12:49:53;;;;;;;6.78;2.50;;;23.60;37.60;;;;;;6223392;28;20124;-73
2021/10/19 12:52:54;;;;;;;10.73;2.50;;;23.40;38.30;;;;;;6221954;28;20113;-73
2021/10/19 12:55:55;;;;;;;4.32;2.63;;;23.20;38.90;;;;;;6221691;28;20033;-72
2021/10/19 12:58:57;;;;;;;4.32;2.65;;;23.10;39.50;;;;;;6223031;28;20065;-74
2021/10/19 13:01:58;;;;;;;6.55;2.80;;;23.00;40.10;;;;;;6228804;28;20044;-74
2021/10/19 13:04:59;;;;;;;5.07;2.55;;;22.90;40.60;;;;;;6223044;28;20034;-72
2021/10/19 13:08:02;;;;;;;7.55;2.97;;;22.80;41.10;;;;;;6223986;28;20417;-72
2021/10/19 13:11:04;;;;;;;6.45;3.20;;;22.80;41.50;;;;;;6223696;28;20084;-72
2021/10/19 13:14:05;;;;;;;6.32;3.17;;;22.70;42.00;;;;;;6223579;28;20467;-73
2021/10/19 13:17:06;;;;;;;10.23;2.53;;;22.70;42.10;;;;;;6223985;28;20168;-73
2021/10/19 13:20:07;;;;;;;6.03;2.40;;;22.60;42.30;;;;;;6220837;28;20125;-73
2021/10/19 13:23:08;;;;;;;11.05;2.75;;;22.60;42.40;;;;;;6223235;28;20100;-71
2021/10/19 13:26:10;;;;;;;5.65;3.05;;;22.60;42.60;;;;;;6205626;28;20034;-73
2021/10/19 13:29:10;;;;;;;5.38;2.90;;;22.70;42.60;;;;;;6221885;28;20101;-72
2021/10/19 13:32:11;;;;;;;4.15;2.63;;;22.70;42.70;;;;;;6223990;28;20037;-73
2021/10/19 13:35:12;;;;;;;13.32;2.97;;;22.70;42.90;;;;;;6238049;28;20034;-72
2021/10/19 13:38:15;;;;;;;8.23;3.78;;;22.70;43.00;;;;;;6237701;28;20450;-72
2021/10/19 13:41:16;;;;;;;14.20;2.92;;;22.70;43.10;;;;;;6222466;28;20571;-74
2021/10/19 13:44:18;;;;;;;7.07;3.13;;;22.70;43.20;;;;;;6222564;28;20033;-73
2021/10/19 13:47:19;;;;;;;7.57;3.17;;;22.70;43.30;;;;;;6221925;28;20056;-72
2021/10/19 13:50:21;;;;;;;7.05;2.75;;;22.80;43.50;;;;;;6221177;28;20034;-73
2021/10/19 13:53:22;;;;;;;9.98;3.42;;;22.70;43.70;;;;;;6238081;28;20104;-73
2021/10/19 13:56:23;;;;;;;11.60;3.08;;;22.70;43.80;;;;;;6238014;28;20475;-72
2021/10/19 13:59:24;;;;;;;12.82;3.40;;;22.70;44.00;;;;;;6221568;28;20359;-72
2021/10/19 14:02:25;;;;;;;8.57;3.08;;;22.70;44.00;;;;;;6226774;28;20037;-73
2021/10/19 14:05:26;;;;;;;6.70;3.75;;;22.80;44.20;;;;;;6221521;28;20479;-72
2021/10/19 14:08:27;;;;;;;9.63;3.15;;;22.80;44.30;;;;;;6221027;28;20459;-72
2021/10/19 14:11:30;;;;;;;10.27;3.08;;;22.80;44.40;;;;;;6224694;28;20034;-73
2021/10/19 14:14:37;;;;;;;7.88;3.30;;;22.80;44.40;;;;;;6225799;28;20042;-72
2021/10/19 14:17:38;;;;;;;8.93;3.28;;;22.80;44.50;;;;;;6226888;28;20057;-72
2021/10/19 14:20:39;;;;;;;5.78;2.90;;;22.80;44.60;;;;;;6226484;28;20046;-73
2021/10/19 14:23:40;;;;;;;5.97;3.10;;;22.70;44.70;;;;;;6227309;28;20053;-73
2021/10/19 14:26:41;;;;;;;5.75;2.85;;;22.70;44.70;;;;;;6227298;28;20038;-73
2021/10/19 14:29:44;;;;;;;8.70;3.30;;;22.70;44.80;;;;;;6227234;28;20030;-73
2021/10/19 14:32:45;;;;;;;7.32;3.22;;;22.70;44.90;;;;;;6227811;28;20467;-71
2021/10/19 14:35:46;;;;;;;7.25;3.38;;;22.70;45.10;;;;;;6225997;28;20057;-72
2021/10/19 14:38:48;;;;;;;8.48;3.80;;;22.70;45.30;;;;;;6227019;28;20052;-72
2021/10/19 14:41:51;;;;;;;7.15;4.05;;;22.60;45.40;;;;;;6226257;28;20103;-72
2021/10/19 14:44:54;;;;;;;6.13;3.47;;;22.60;45.40;;;;;;6242643;28;20367;-72
2021/10/19 14:47:55;;;;;;;14.48;4.03;;;22.60;45.60;;;;;;6227166;28;20038;-72
2021/10/19 14:50:56;;;;;;;8.95;3.55;;;22.50;45.70;;;;;;6226702;28;20068;-72
2021/10/19 14:53:57;;;;;;;6.65;3.47;;;22.50;45.80;;;;;;6242185;28;20042;-73
2021/10/19 14:56:58;;;;;;;12.10;3.70;;;22.50;45.90;;;;;;6226526;28;20045;-72
2021/10/19 14:59:59;;;;;;;10.80;3.33;;;22.50;46.10;;;;;;6226641;28;20379;-73
2021/10/19 15:03:00;;;;;;;10.00;3.67;;;22.40;46.30;;;;;;6229834;28;20029;-73
2021/10/19 15:06:02;;;;;;;14.25;4.95;;;22.40;46.50;;;;;;6242063;28;20117;-72
2021/10/19 15:09:03;;;;;;;5.10;3.38;;;22.40;46.70;;;;;;6226984;28;20052;-72
2021/10/19 15:12:04;;;;;;;7.38;4.07;;;22.30;46.80;;;;;;6225339;28;20352;-73
2021/10/19 15:15:05;;;;;;;10.35;3.55;;;22.30;46.90;;;;;;6241468;28;20416;-75
2021/10/19 15:18:07;;;;;;;6.82;3.95;;;22.30;47.10;;;;;;6226003;28;20050;-73
2021/10/19 15:21:09;;;;;;;9.95;4.20;;;22.30;47.20;;;;;;6226556;28;20090;-72
2021/10/19 15:24:09;;;;;;;9.55;3.95;;;22.30;47.30;;;;;;6223286;28;20408;-72
2021/10/19 15:27:10;;;;;;;20.10;4.20;;;22.20;47.40;;;;;;6226301;28;20034;-73
2021/10/19 15:30:12;;;;;;;7.10;4.20;;;22.20;47.50;;;;;;6241387;28;20056;-73
2021/10/19 15:33:13;;;;;;;6.80;4.35;;;22.20;47.60;;;;;;6231915;28;20053;-73
2021/10/19 15:36:14;;;;;;;5.38;3.55;;;22.20;47.70;;;;;;6208566;28;20049;-73
2021/10/19 15:39:16;;;;;;;7.65;4.35;;;22.20;47.80;;;;;;6225704;28;20103;-73
2021/10/19 15:42:17;;;;;;;14.07;3.80;;;22.10;47.90;;;;;;6225721;28;20034;-74